sensor_id;sensor_type;location;lat;lon;timestamp;temperature;humidity
24250;DHT22;12379;49.820;8.648;2022-08-19T00:00:19;21.80;99.90
24250;DHT22;12379;49.820;8.648;2022-08-19T00:02:45;21.80;99.90
24250;DHT22;12379;49.820;8.648;2022-08-19T00:05:13;21.80;99.90
24250;DHT22;12379;49.820;8.648;2022-08-19T00:07:39;21.80;99.90
24250;DHT22;12379;49.820;8.648;2022-08-19T00:10:07;21.80;99.90
24250;DHT22;12379;49.820;8.648;2022-08-19T00:12:33;21.80;99.90
24250;DHT22;12379;49.820;8.648;2022-08-19T00:14:59;21.80;99.90
24250;DHT22;12379;49.820;8.648;2022-08-19T00:17:25;21.90;99.90
24250;DHT22;12379;49.820;8.648;2022-08-19T00:19:51;21.90;99.90
24250;DHT22;12379;49.820;8.648;2022-08-19T00:22:16;21.90;99.90
24250;DHT22;12379;49.820;8.648;2022-08-19T00:24:46;21.90;99.90
24250;DHT22;12379;49.820;8.648;2022-08-19T00:27:13;21.90;99.90
24250;DHT22;12379;49.820;8.648;2022-08-19T00:29:38;22.00;99.90
24250;DHT22;12379;49.820;8.648;2022-08-19T00:32:05;22.00;99.90
24250;DHT22;12379;49.820;8.648;2022-08-19T00:34:31;22.00;99.90
24250;DHT22;12379;49.820;8.648;2022-08-19T00:36:57;22.00;99.90
24250;DHT22;12379;49.820;8.648;2022-08-19T00:39:23;22.00;99.90
24250;DHT22;12379;49.820;8.648;2022-08-19T00:41:50;21.90;99.90
24250;DHT22;12379;49.820;8.648;2022-08-19T00:44:25;21.90;99.90
24250;DHT22;12379;49.820;8.648;2022-08-19T00:46:53;21.90;99.90
24250;DHT22;12379;49.820;8.648;2022-08-19T00:49:22;21.90;99.90
24250;DHT22;12379;49.820;8.648;2022-08-19T00:51:53;21.90;99.90
24250;DHT22;12379;49.820;8.648;2022-08-19T00:54:20;21.80;99.90
24250;DHT22;12379;49.820;8.648;2022-08-19T00:56:46;21.80;99.90
24250;DHT22;12379;49.820;8.648;2022-08-19T00:59:14;21.80;99.90
24250;DHT22;12379;49.820;8.648;2022-08-19T01:01:41;21.70;99.90
24250;DHT22;12379;49.820;8.648;2022-08-19T01:04:07;21.70;99.90
24250;DHT22;12379;49.820;8.648;2022-08-19T01:06:35;21.70;99.90
24250;DHT22;12379;49.820;8.648;2022-08-19T01:09:01;21.70;99.90
24250;DHT22;12379;49.820;8.648;2022-08-19T01:11:27;21.60;99.90
24250;DHT22;12379;49.820;8.648;2022-08-19T01:13:54;21.50;99.90
24250;DHT22;12379;49.820;8.648;2022-08-19T01:16:22;21.40;99.90
24250;DHT22;12379;49.820;8.648;2022-08-19T01:18:49;21.40;99.90
24250;DHT22;12379;49.820;8.648;2022-08-19T01:21:27;21.50;99.90
24250;DHT22;12379;49.820;8.648;2022-08-19T01:23:53;21.40;99.90
24250;DHT22;12379;49.820;8.648;2022-08-19T01:26:22;21.50;99.90
24250;DHT22;12379;49.820;8.648;2022-08-19T01:28:50;21.60;99.90
24250;DHT22;12379;49.820;8.648;2022-08-19T01:31:19;21.60;99.90
24250;DHT22;12379;49.820;8.648;2022-08-19T01:33:47;21.60;99.90
24250;DHT22;12379;49.820;8.648;2022-08-19T01:36:16;21.60;99.90
24250;DHT22;12379;49.820;8.648;2022-08-19T01:38:47;21.60;99.90
24250;DHT22;12379;49.820;8.648;2022-08-19T01:41:14;21.70;99.90
24250;DHT22;12379;49.820;8.648;2022-08-19T01:43:40;21.70;99.90
24250;DHT22;12379;49.820;8.648;2022-08-19T01:46:06;21.70;99.90
24250;DHT22;12379;49.820;8.648;2022-08-19T01:48:38;21.70;99.90
24250;DHT22;12379;49.820;8.648;2022-08-19T01:51:05;21.60;99.90
24250;DHT22;12379;49.820;8.648;2022-08-19T01:53:30;21.60;99.90
24250;DHT22;12379;49.820;8.648;2022-08-19T01:55:56;21.60;99.90
24250;DHT22;12379;49.820;8.648;2022-08-19T01:58:27;21.70;99.90
24250;DHT22;12379;49.820;8.648;2022-08-19T02:00:55;21.70;99.90
24250;DHT22;12379;49.820;8.648;2022-08-19T02:03:21;21.60;99.90
24250;DHT22;12379;49.820;8.648;2022-08-19T02:05:48;21.60;99.90
24250;DHT22;12379;49.820;8.648;2022-08-19T02:08:18;21.70;99.90
24250;DHT22;12379;49.820;8.648;2022-08-19T02:10:44;21.60;99.90
24250;DHT22;12379;49.820;8.648;2022-08-19T02:13:11;21.60;99.90
24250;DHT22;12379;49.820;8.648;2022-08-19T02:15:37;21.60;99.90
24250;DHT22;12379;49.820;8.648;2022-08-19T02:18:03;21.60;99.90
24250;DHT22;12379;49.820;8.648;2022-08-19T02:20:29;21.60;99.90
24250;DHT22;12379;49.820;8.648;2022-08-19T02:22:54;21.60;99.90
24250;DHT22;12379;49.820;8.648;2022-08-19T02:25:20;21.60;99.90
24250;DHT22;12379;49.820;8.648;2022-08-19T02:27:46;21.50;99.90
24250;DHT22;12379;49.820;8.648;2022-08-19T02:30:17;21.50;99.90
24250;DHT22;12379;49.820;8.648;2022-08-19T02:32:44;21.50;99.90
24250;DHT22;12379;49.820;8.648;2022-08-19T02:35:10;21.50;99.90
24250;DHT22;12379;49.820;8.648;2022-08-19T02:37:36;21.50;99.90
24250;DHT22;12379;49.820;8.648;2022-08-19T02:40:20;21.50;99.90
24250;DHT22;12379;49.820;8.648;2022-08-19T02:42:46;21.60;99.90
24250;DHT22;12379;49.820;8.648;2022-08-19T02:45:13;21.60;99.90
24250;DHT22;12379;49.820;8.648;2022-08-19T02:47:39;21.60;99.90
24250;DHT22;12379;49.820;8.648;2022-08-19T02:50:06;21.60;99.90
24250;DHT22;12379;49.820;8.648;2022-08-19T02:52:33;21.50;99.90
24250;DHT22;12379;49.820;8.648;2022-08-19T02:54:59;21.40;99.90
24250;DHT22;12379;49.820;8.648;2022-08-19T02:57:25;21.40;99.90
24250;DHT22;12379;49.820;8.648;2022-08-19T02:59:51;21.50;99.90
24250;DHT22;12379;49.820;8.648;2022-08-19T03:02:17;21.50;99.90
24250;DHT22;12379;49.820;8.648;2022-08-19T03:04:43;21.40;99.90
24250;DHT22;12379;49.820;8.648;2022-08-19T03:07:09;21.30;99.90
24250;DHT22;12379;49.820;8.648;2022-08-19T03:09:38;21.20;99.90
24250;DHT22;12379;49.820;8.648;2022-08-19T03:12:04;21.10;99.90
24250;DHT22;12379;49.820;8.648;2022-08-19T03:14:31;21.00;99.90
24250;DHT22;12379;49.820;8.648;2022-08-19T03:16:57;21.00;99.90
24250;DHT22;12379;49.820;8.648;2022-08-19T03:19:23;20.90;99.90
24250;DHT22;12379;49.820;8.648;2022-08-19T03:21:49;20.90;99.90
24250;DHT22;12379;49.820;8.648;2022-08-19T03:24:16;20.80;99.90
24250;DHT22;12379;49.820;8.648;2022-08-19T03:26:48;20.80;99.90
24250;DHT22;12379;49.820;8.648;2022-08-19T03:29:15;20.80;99.90
24250;DHT22;12379;49.820;8.648;2022-08-19T03:31:42;20.80;99.90
24250;DHT22;12379;49.820;8.648;2022-08-19T03:34:13;20.80;99.90
24250;DHT22;12379;49.820;8.648;2022-08-19T03:36:39;20.80;99.90
24250;DHT22;12379;49.820;8.648;2022-08-19T03:39:04;20.90;99.90
24250;DHT22;12379;49.820;8.648;2022-08-19T03:41:35;21.00;99.90
24250;DHT22;12379;49.820;8.648;2022-08-19T03:44:01;21.00;99.90
24250;DHT22;12379;49.820;8.648;2022-08-19T03:46:29;20.90;99.90
24250;DHT22;12379;49.820;8.648;2022-08-19T03:48:57;20.90;99.90
24250;DHT22;12379;49.820;8.648;2022-08-19T03:51:29;20.90;99.90
24250;DHT22;12379;49.820;8.648;2022-08-19T03:53:58;20.80;99.90
24250;DHT22;12379;49.820;8.648;2022-08-19T03:56:24;20.70;99.90
24250;DHT22;12379;49.820;8.648;2022-08-19T03:58:51;20.70;99.90
24250;DHT22;12379;49.820;8.648;2022-08-19T04:01:20;20.70;99.90
24250;DHT22;12379;49.820;8.648;2022-08-19T04:03:46;20.60;99.90
24250;DHT22;12379;49.820;8.648;2022-08-19T04:06:20;20.60;99.90
24250;DHT22;12379;49.820;8.648;2022-08-19T04:08:48;20.60;99.90
24250;DHT22;12379;49.820;8.648;2022-08-19T04:11:17;20.60;99.90
24250;DHT22;12379;49.820;8.648;2022-08-19T04:13:46;20.60;99.90
24250;DHT22;12379;49.820;8.648;2022-08-19T04:16:12;20.50;99.90
24250;DHT22;12379;49.820;8.648;2022-08-19T04:18:38;20.50;99.90
24250;DHT22;12379;49.820;8.648;2022-08-19T04:21:05;20.50;99.90
24250;DHT22;12379;49.820;8.648;2022-08-19T04:23:32;20.40;99.90
24250;DHT22;12379;49.820;8.648;2022-08-19T04:25:58;20.50;99.90
24250;DHT22;12379;49.820;8.648;2022-08-19T04:28:24;20.50;99.90
24250;DHT22;12379;49.820;8.648;2022-08-19T04:30:52;20.50;99.90
24250;DHT22;12379;49.820;8.648;2022-08-19T04:33:21;20.60;99.90
24250;DHT22;12379;49.820;8.648;2022-08-19T04:35:48;20.60;99.90
24250;DHT22;12379;49.820;8.648;2022-08-19T04:38:17;20.60;99.90
24250;DHT22;12379;49.820;8.648;2022-08-19T04:40:44;20.50;99.90
24250;DHT22;12379;49.820;8.648;2022-08-19T04:43:29;20.50;99.90
24250;DHT22;12379;49.820;8.648;2022-08-19T04:45:55;20.50;99.90
24250;DHT22;12379;49.820;8.648;2022-08-19T04:48:21;20.50;99.90
24250;DHT22;12379;49.820;8.648;2022-08-19T04:50:55;20.40;99.90
24250;DHT22;12379;49.820;8.648;2022-08-19T04:53:33;20.50;99.90
24250;DHT22;12379;49.820;8.648;2022-08-19T04:56:03;20.40;99.90
24250;DHT22;12379;49.820;8.648;2022-08-19T04:58:29;20.40;99.90
24250;DHT22;12379;49.820;8.648;2022-08-19T05:00:54;20.50;99.90
24250;DHT22;12379;49.820;8.648;2022-08-19T05:03:21;20.50;99.90
24250;DHT22;12379;49.820;8.648;2022-08-19T05:05:48;20.60;99.90
24250;DHT22;12379;49.820;8.648;2022-08-19T05:08:19;20.60;99.90
24250;DHT22;12379;49.820;8.648;2022-08-19T05:10:46;20.60;99.90
24250;DHT22;12379;49.820;8.648;2022-08-19T05:13:13;20.50;99.90
24250;DHT22;12379;49.820;8.648;2022-08-19T05:15:39;20.50;99.90
24250;DHT22;12379;49.820;8.648;2022-08-19T05:18:04;20.60;99.90
24250;DHT22;12379;49.820;8.648;2022-08-19T05:20:48;20.70;99.90
24250;DHT22;12379;49.820;8.648;2022-08-19T05:23:33;20.70;99.90
24250;DHT22;12379;49.820;8.648;2022-08-19T05:25:58;20.80;99.90
24250;DHT22;12379;49.820;8.648;2022-08-19T05:28:24;20.80;99.90
24250;DHT22;12379;49.820;8.648;2022-08-19T05:30:49;20.80;99.90
24250;DHT22;12379;49.820;8.648;2022-08-19T05:33:16;20.80;99.90
24250;DHT22;12379;49.820;8.648;2022-08-19T05:35:42;20.80;99.90
24250;DHT22;12379;49.820;8.648;2022-08-19T05:38:09;20.80;99.90
24250;DHT22;12379;49.820;8.648;2022-08-19T05:40:37;20.90;99.90
24250;DHT22;12379;49.820;8.648;2022-08-19T05:43:07;20.80;99.90
24250;DHT22;12379;49.820;8.648;2022-08-19T05:45:38;20.90;99.90
24250;DHT22;12379;49.820;8.648;2022-08-19T05:48:04;20.90;99.90
24250;DHT22;12379;49.820;8.648;2022-08-19T05:50:29;21.10;99.90
24250;DHT22;12379;49.820;8.648;2022-08-19T05:52:55;21.00;99.90
24250;DHT22;12379;49.820;8.648;2022-08-19T05:55:21;21.20;99.90
24250;DHT22;12379;49.820;8.648;2022-08-19T05:57:48;21.30;99.90
24250;DHT22;12379;49.820;8.648;2022-08-19T06:00:14;21.40;99.90
24250;DHT22;12379;49.820;8.648;2022-08-19T06:02:40;21.50;99.90
24250;DHT22;12379;49.820;8.648;2022-08-19T06:05:06;21.60;99.90
24250;DHT22;12379;49.820;8.648;2022-08-19T06:07:35;21.70;99.90
24250;DHT22;12379;49.820;8.648;2022-08-19T06:10:02;21.80;99.90
24250;DHT22;12379;49.820;8.648;2022-08-19T06:12:32;21.80;99.90
24250;DHT22;12379;49.820;8.648;2022-08-19T06:15:07;21.90;99.90
24250;DHT22;12379;49.820;8.648;2022-08-19T06:17:33;22.00;99.90
24250;DHT22;12379;49.820;8.648;2022-08-19T06:20:01;22.00;99.90
24250;DHT22;12379;49.820;8.648;2022-08-19T06:22:27;22.10;99.90
24250;DHT22;12379;49.820;8.648;2022-08-19T06:24:53;22.20;99.90
24250;DHT22;12379;49.820;8.648;2022-08-19T06:27:20;22.40;99.90
24250;DHT22;12379;49.820;8.648;2022-08-19T06:29:45;22.50;99.90
24250;DHT22;12379;49.820;8.648;2022-08-19T06:32:13;22.70;99.90
24250;DHT22;12379;49.820;8.648;2022-08-19T06:34:40;22.70;99.90
24250;DHT22;12379;49.820;8.648;2022-08-19T06:37:07;22.80;99.90
24250;DHT22;12379;49.820;8.648;2022-08-19T06:39:35;23.10;99.90
24250;DHT22;12379;49.820;8.648;2022-08-19T06:42:03;23.30;99.90
24250;DHT22;12379;49.820;8.648;2022-08-19T06:44:32;23.60;99.90
24250;DHT22;12379;49.820;8.648;2022-08-19T06:47:02;23.80;99.90
24250;DHT22;12379;49.820;8.648;2022-08-19T06:49:28;24.00;99.90
24250;DHT22;12379;49.820;8.648;2022-08-19T06:51:56;24.30;99.90
24250;DHT22;12379;49.820;8.648;2022-08-19T06:54:23;24.60;99.90
24250;DHT22;12379;49.820;8.648;2022-08-19T06:56:48;24.60;99.90
24250;DHT22;12379;49.820;8.648;2022-08-19T06:59:17;24.60;99.90
24250;DHT22;12379;49.820;8.648;2022-08-19T07:01:45;24.80;99.90
24250;DHT22;12379;49.820;8.648;2022-08-19T07:04:13;24.90;99.90
24250;DHT22;12379;49.820;8.648;2022-08-19T07:06:40;24.90;99.90
24250;DHT22;12379;49.820;8.648;2022-08-19T07:09:06;24.60;99.90
24250;DHT22;12379;49.820;8.648;2022-08-19T07:11:32;24.40;99.90
24250;DHT22;12379;49.820;8.648;2022-08-19T07:13:58;24.20;99.90
24250;DHT22;12379;49.820;8.648;2022-08-19T07:16:24;24.00;99.90
24250;DHT22;12379;49.820;8.648;2022-08-19T07:18:50;23.90;99.90
24250;DHT22;12379;49.820;8.648;2022-08-19T07:21:26;23.90;99.90
24250;DHT22;12379;49.820;8.648;2022-08-19T07:23:56;23.90;99.90
24250;DHT22;12379;49.820;8.648;2022-08-19T07:26:26;24.00;99.90
24250;DHT22;12379;49.820;8.648;2022-08-19T07:28:53;24.40;99.90
24250;DHT22;12379;49.820;8.648;2022-08-19T07:31:22;24.40;99.90
24250;DHT22;12379;49.820;8.648;2022-08-19T07:33:49;24.40;99.90
24250;DHT22;12379;49.820;8.648;2022-08-19T07:36:18;24.70;99.90
24250;DHT22;12379;49.820;8.648;2022-08-19T07:38:45;25.00;99.90
24250;DHT22;12379;49.820;8.648;2022-08-19T07:41:19;25.20;99.90
24250;DHT22;12379;49.820;8.648;2022-08-19T07:43:45;25.50;99.90
24250;DHT22;12379;49.820;8.648;2022-08-19T07:46:12;26.10;99.90
24250;DHT22;12379;49.820;8.648;2022-08-19T07:48:40;26.50;99.80
24250;DHT22;12379;49.820;8.648;2022-08-19T07:51:08;26.90;99.10
24250;DHT22;12379;49.820;8.648;2022-08-19T07:53:35;27.30;98.10
24250;DHT22;12379;49.820;8.648;2022-08-19T07:56:01;27.40;97.40
24250;DHT22;12379;49.820;8.648;2022-08-19T07:58:31;27.10;97.40
24250;DHT22;12379;49.820;8.648;2022-08-19T08:00:58;26.90;97.60
24250;DHT22;12379;49.820;8.648;2022-08-19T08:03:24;26.40;98.10
24250;DHT22;12379;49.820;8.648;2022-08-19T08:06:11;26.30;98.50
24250;DHT22;12379;49.820;8.648;2022-08-19T08:08:56;26.10;98.70
24250;DHT22;12379;49.820;8.648;2022-08-19T08:11:46;26.00;98.90
24250;DHT22;12379;49.820;8.648;2022-08-19T08:14:22;25.70;98.90
24250;DHT22;12379;49.820;8.648;2022-08-19T08:16:48;25.70;99.60
24250;DHT22;12379;49.820;8.648;2022-08-19T08:19:16;25.70;99.80
24250;DHT22;12379;49.820;8.648;2022-08-19T08:21:42;25.70;99.60
24250;DHT22;12379;49.820;8.648;2022-08-19T08:24:08;25.70;99.80
24250;DHT22;12379;49.820;8.648;2022-08-19T08:26:34;25.80;99.40
24250;DHT22;12379;49.820;8.648;2022-08-19T08:28:59;26.00;98.80
24250;DHT22;12379;49.820;8.648;2022-08-19T08:31:25;26.30;98.30
24250;DHT22;12379;49.820;8.648;2022-08-19T08:33:50;26.70;97.70
24250;DHT22;12379;49.820;8.648;2022-08-19T08:36:16;26.70;97.60
24250;DHT22;12379;49.820;8.648;2022-08-19T08:38:43;26.70;97.20
24250;DHT22;12379;49.820;8.648;2022-08-19T08:43:56;26.10;97.60
24250;DHT22;12379;49.820;8.648;2022-08-19T08:46:37;26.10;97.80
24250;DHT22;12379;49.820;8.648;2022-08-19T08:49:29;26.40;97.60
24250;DHT22;12379;49.820;8.648;2022-08-19T08:52:10;26.90;96.80
24250;DHT22;12379;49.820;8.648;2022-08-19T08:54:45;27.40;96.10
24250;DHT22;12379;49.820;8.648;2022-08-19T08:57:17;27.60;94.60
24250;DHT22;12379;49.820;8.648;2022-08-19T08:59:46;27.60;94.70
24250;DHT22;12379;49.820;8.648;2022-08-19T09:02:17;28.00;94.50
24250;DHT22;12379;49.820;8.648;2022-08-19T09:04:43;27.80;93.80
24250;DHT22;12379;49.820;8.648;2022-08-19T09:09:43;27.40;94.10
24250;DHT22;12379;49.820;8.648;2022-08-19T09:17:11;27.30;94.30
24250;DHT22;12379;49.820;8.648;2022-08-19T09:19:56;27.30;94.00
24250;DHT22;12379;49.820;8.648;2022-08-19T09:22:22;27.20;93.70
24250;DHT22;12379;49.820;8.648;2022-08-19T09:24:51;26.90;94.40
24250;DHT22;12379;49.820;8.648;2022-08-19T09:27:22;26.70;94.00
24250;DHT22;12379;49.820;8.648;2022-08-19T09:29:49;26.30;94.40
24250;DHT22;12379;49.820;8.648;2022-08-19T09:32:15;26.30;94.40
24250;DHT22;12379;49.820;8.648;2022-08-19T09:34:42;26.10;94.90
24250;DHT22;12379;49.820;8.648;2022-08-19T09:37:08;26.20;95.10
24250;DHT22;12379;49.820;8.648;2022-08-19T09:39:34;26.30;94.90
24250;DHT22;12379;49.820;8.648;2022-08-19T09:42:00;26.30;95.30
24250;DHT22;12379;49.820;8.648;2022-08-19T09:44:25;26.40;94.70
24250;DHT22;12379;49.820;8.648;2022-08-19T09:46:51;26.30;95.00
24250;DHT22;12379;49.820;8.648;2022-08-19T09:49:18;26.20;95.20
24250;DHT22;12379;49.820;8.648;2022-08-19T09:51:50;26.10;95.50
24250;DHT22;12379;49.820;8.648;2022-08-19T09:54:15;26.30;95.70
24250;DHT22;12379;49.820;8.648;2022-08-19T09:56:41;26.80;94.70
24250;DHT22;12379;49.820;8.648;2022-08-19T09:59:06;27.10;93.70
24250;DHT22;12379;49.820;8.648;2022-08-19T10:01:33;26.80;93.80
24250;DHT22;12379;49.820;8.648;2022-08-19T10:04:00;26.70;94.10
24250;DHT22;12379;49.820;8.648;2022-08-19T10:06:28;26.60;94.60
24250;DHT22;12379;49.820;8.648;2022-08-19T10:08:57;26.60;95.00
24250;DHT22;12379;49.820;8.648;2022-08-19T10:11:23;26.40;94.60
24250;DHT22;12379;49.820;8.648;2022-08-19T10:13:48;26.30;95.00
24250;DHT22;12379;49.820;8.648;2022-08-19T10:16:17;26.40;95.10
24250;DHT22;12379;49.820;8.648;2022-08-19T10:18:44;26.50;94.90
24250;DHT22;12379;49.820;8.648;2022-08-19T10:21:19;26.50;95.00
24250;DHT22;12379;49.820;8.648;2022-08-19T10:23:50;26.50;94.70
24250;DHT22;12379;49.820;8.648;2022-08-19T10:26:21;26.50;95.00
24250;DHT22;12379;49.820;8.648;2022-08-19T10:28:48;26.70;94.80
24250;DHT22;12379;49.820;8.648;2022-08-19T10:31:18;27.10;94.20
24250;DHT22;12379;49.820;8.648;2022-08-19T10:33:45;27.40;93.70
24250;DHT22;12379;49.820;8.648;2022-08-19T10:36:17;27.80;92.30
24250;DHT22;12379;49.820;8.648;2022-08-19T10:38:46;27.70;91.60
24250;DHT22;12379;49.820;8.648;2022-08-19T10:41:18;27.80;91.40
24250;DHT22;12379;49.820;8.648;2022-08-19T10:43:45;27.80;91.00
24250;DHT22;12379;49.820;8.648;2022-08-19T10:46:15;28.10;91.00
24250;DHT22;12379;49.820;8.648;2022-08-19T10:48:42;27.90;91.00
24250;DHT22;12379;49.820;8.648;2022-08-19T10:51:08;27.40;91.30
24250;DHT22;12379;49.820;8.648;2022-08-19T10:53:53;27.10;91.80
24250;DHT22;12379;49.820;8.648;2022-08-19T10:56:19;27.30;92.20
24250;DHT22;12379;49.820;8.648;2022-08-19T10:59:04;27.30;91.80
24250;DHT22;12379;49.820;8.648;2022-08-19T11:01:33;27.60;91.30
24250;DHT22;12379;49.820;8.648;2022-08-19T11:04:01;27.70;91.00
24250;DHT22;12379;49.820;8.648;2022-08-19T11:06:27;27.80;90.70
24250;DHT22;12379;49.820;8.648;2022-08-19T11:08:53;27.90;90.80
24250;DHT22;12379;49.820;8.648;2022-08-19T11:11:20;27.90;90.20
24250;DHT22;12379;49.820;8.648;2022-08-19T11:13:47;27.80;89.60
24250;DHT22;12379;49.820;8.648;2022-08-19T11:16:16;27.80;90.00
24250;DHT22;12379;49.820;8.648;2022-08-19T11:18:53;27.70;90.00
24250;DHT22;12379;49.820;8.648;2022-08-19T11:21:28;27.90;89.00
24250;DHT22;12379;49.820;8.648;2022-08-19T11:23:57;27.90;87.90
24250;DHT22;12379;49.820;8.648;2022-08-19T11:26:23;28.10;88.20
24250;DHT22;12379;49.820;8.648;2022-08-19T11:28:50;28.20;87.20
24250;DHT22;12379;49.820;8.648;2022-08-19T11:31:21;28.20;87.10
24250;DHT22;12379;49.820;8.648;2022-08-19T11:33:48;28.00;83.00
24250;DHT22;12379;49.820;8.648;2022-08-19T11:36:18;27.70;82.00
24250;DHT22;12379;49.820;8.648;2022-08-19T11:38:46;27.70;83.80
24250;DHT22;12379;49.820;8.648;2022-08-19T11:41:14;27.90;84.20
24250;DHT22;12379;49.820;8.648;2022-08-19T11:43:41;27.90;85.20
24250;DHT22;12379;49.820;8.648;2022-08-19T11:46:10;28.20;84.00
24250;DHT22;12379;49.820;8.648;2022-08-19T11:48:37;28.40;83.70
24250;DHT22;12379;49.820;8.648;2022-08-19T11:51:09;28.40;83.50
24250;DHT22;12379;49.820;8.648;2022-08-19T11:53:35;28.50;83.70
24250;DHT22;12379;49.820;8.648;2022-08-19T11:56:01;28.60;82.60
24250;DHT22;12379;49.820;8.648;2022-08-19T11:58:27;28.40;82.30
24250;DHT22;12379;49.820;8.648;2022-08-19T12:00:54;28.20;80.90
24250;DHT22;12379;49.820;8.648;2022-08-19T12:03:20;28.30;80.80
24250;DHT22;12379;49.820;8.648;2022-08-19T12:05:46;28.40;81.00
24250;DHT22;12379;49.820;8.648;2022-08-19T12:08:12;28.50;80.80
24250;DHT22;12379;49.820;8.648;2022-08-19T12:10:39;28.30;80.40
24250;DHT22;12379;49.820;8.648;2022-08-19T12:13:06;28.20;81.20
24250;DHT22;12379;49.820;8.648;2022-08-19T12:15:39;27.90;78.00
24250;DHT22;12379;49.820;8.648;2022-08-19T12:18:08;27.90;77.50
24250;DHT22;12379;49.820;8.648;2022-08-19T12:20:36;28.10;78.00
24250;DHT22;12379;49.820;8.648;2022-08-19T12:23:05;28.30;77.20
24250;DHT22;12379;49.820;8.648;2022-08-19T12:25:32;28.60;76.60
24250;DHT22;12379;49.820;8.648;2022-08-19T12:27:58;28.80;75.70
24250;DHT22;12379;49.820;8.648;2022-08-19T12:30:24;29.00;74.20
24250;DHT22;12379;49.820;8.648;2022-08-19T12:32:50;28.80;74.30
24250;DHT22;12379;49.820;8.648;2022-08-19T12:35:17;28.60;75.20
24250;DHT22;12379;49.820;8.648;2022-08-19T12:37:42;28.70;75.20
24250;DHT22;12379;49.820;8.648;2022-08-19T12:40:11;28.80;75.90
24250;DHT22;12379;49.820;8.648;2022-08-19T12:42:38;28.80;75.80
24250;DHT22;12379;49.820;8.648;2022-08-19T12:45:11;29.00;74.10
24250;DHT22;12379;49.820;8.648;2022-08-19T12:47:38;29.10;72.60
24250;DHT22;12379;49.820;8.648;2022-08-19T12:50:04;29.10;70.60
24250;DHT22;12379;49.820;8.648;2022-08-19T12:52:31;29.00;70.90
24250;DHT22;12379;49.820;8.648;2022-08-19T12:54:57;29.10;71.50
24250;DHT22;12379;49.820;8.648;2022-08-19T12:57:25;28.90;71.50
24250;DHT22;12379;49.820;8.648;2022-08-19T12:59:52;29.10;71.50
24250;DHT22;12379;49.820;8.648;2022-08-19T13:02:21;29.30;69.40
24250;DHT22;12379;49.820;8.648;2022-08-19T13:04:47;29.30;68.70
24250;DHT22;12379;49.820;8.648;2022-08-19T13:07:13;29.30;68.80
24250;DHT22;12379;49.820;8.648;2022-08-19T13:09:38;29.30;68.50
24250;DHT22;12379;49.820;8.648;2022-08-19T13:12:06;29.20;68.30
24250;DHT22;12379;49.820;8.648;2022-08-19T13:14:34;29.10;65.80
24250;DHT22;12379;49.820;8.648;2022-08-19T13:17:00;29.00;66.40
24250;DHT22;12379;49.820;8.648;2022-08-19T13:19:26;29.00;66.90
24250;DHT22;12379;49.820;8.648;2022-08-19T13:21:52;29.00;68.60
24250;DHT22;12379;49.820;8.648;2022-08-19T13:24:19;29.20;68.00
24250;DHT22;12379;49.820;8.648;2022-08-19T13:26:44;29.40;67.90
24250;DHT22;12379;49.820;8.648;2022-08-19T13:29:10;29.40;66.50
24250;DHT22;12379;49.820;8.648;2022-08-19T13:31:55;29.70;64.50
24250;DHT22;12379;49.820;8.648;2022-08-19T13:34:39;29.60;64.80
24250;DHT22;12379;49.820;8.648;2022-08-19T13:37:05;29.60;65.60
24250;DHT22;12379;49.820;8.648;2022-08-19T13:39:32;29.70;65.10
24250;DHT22;12379;49.820;8.648;2022-08-19T13:41:58;29.50;64.00
24250;DHT22;12379;49.820;8.648;2022-08-19T13:44:26;29.70;62.60
24250;DHT22;12379;49.820;8.648;2022-08-19T13:46:55;29.80;62.80
24250;DHT22;12379;49.820;8.648;2022-08-19T13:49:25;29.90;61.80
24250;DHT22;12379;49.820;8.648;2022-08-19T13:51:50;30.00;62.80
24250;DHT22;12379;49.820;8.648;2022-08-19T13:54:16;29.70;63.30
24250;DHT22;12379;49.820;8.648;2022-08-19T13:56:43;29.60;64.40
24250;DHT22;12379;49.820;8.648;2022-08-19T13:59:09;29.60;64.50
24250;DHT22;12379;49.820;8.648;2022-08-19T14:01:35;29.60;64.50
24250;DHT22;12379;49.820;8.648;2022-08-19T14:04:02;29.80;62.70
24250;DHT22;12379;49.820;8.648;2022-08-19T14:06:28;29.80;61.20
24250;DHT22;12379;49.820;8.648;2022-08-19T14:08:53;29.80;60.50
24250;DHT22;12379;49.820;8.648;2022-08-19T14:11:19;29.90;61.10
24250;DHT22;12379;49.820;8.648;2022-08-19T14:13:44;30.00;59.40
24250;DHT22;12379;49.820;8.648;2022-08-19T14:16:12;30.10;58.60
24250;DHT22;12379;49.820;8.648;2022-08-19T14:18:38;29.80;58.60
24250;DHT22;12379;49.820;8.648;2022-08-19T14:21:05;30.00;58.90
24250;DHT22;12379;49.820;8.648;2022-08-19T14:23:32;30.20;59.10
24250;DHT22;12379;49.820;8.648;2022-08-19T14:26:06;30.40;59.00
24250;DHT22;12379;49.820;8.648;2022-08-19T14:28:32;30.20;56.80
24250;DHT22;12379;49.820;8.648;2022-08-19T14:30:58;30.10;56.20
24250;DHT22;12379;49.820;8.648;2022-08-19T14:33:23;30.10;56.50
24250;DHT22;12379;49.820;8.648;2022-08-19T14:35:49;30.30;57.30
24250;DHT22;12379;49.820;8.648;2022-08-19T14:38:17;30.30;56.60
24250;DHT22;12379;49.820;8.648;2022-08-19T14:40:43;30.20;56.70
24250;DHT22;12379;49.820;8.648;2022-08-19T14:43:09;29.90;56.70
24250;DHT22;12379;49.820;8.648;2022-08-19T14:45:37;29.80;57.00
24250;DHT22;12379;49.820;8.648;2022-08-19T14:48:03;29.60;57.90
24250;DHT22;12379;49.820;8.648;2022-08-19T14:50:29;29.70;59.10
24250;DHT22;12379;49.820;8.648;2022-08-19T14:53:05;29.70;58.00
24250;DHT22;12379;49.820;8.648;2022-08-19T14:55:32;29.70;58.70
24250;DHT22;12379;49.820;8.648;2022-08-19T14:57:58;29.70;58.30
24250;DHT22;12379;49.820;8.648;2022-08-19T15:00:24;29.80;58.90
24250;DHT22;12379;49.820;8.648;2022-08-19T15:02:50;30.00;59.00
24250;DHT22;12379;49.820;8.648;2022-08-19T15:05:16;30.00;57.60
24250;DHT22;12379;49.820;8.648;2022-08-19T15:07:42;30.10;57.60
24250;DHT22;12379;49.820;8.648;2022-08-19T15:10:10;30.10;57.50
24250;DHT22;12379;49.820;8.648;2022-08-19T15:12:37;30.10;56.50
24250;DHT22;12379;49.820;8.648;2022-08-19T15:15:10;29.90;56.50
24250;DHT22;12379;49.820;8.648;2022-08-19T15:17:38;29.80;56.10
24250;DHT22;12379;49.820;8.648;2022-08-19T15:20:06;29.50;56.70
24250;DHT22;12379;49.820;8.648;2022-08-19T15:22:32;29.60;57.20
24250;DHT22;12379;49.820;8.648;2022-08-19T15:24:58;29.50;57.40
24250;DHT22;12379;49.820;8.648;2022-08-19T15:27:23;29.70;56.90
24250;DHT22;12379;49.820;8.648;2022-08-19T15:29:49;29.60;56.80
24250;DHT22;12379;49.820;8.648;2022-08-19T15:32:14;29.50;56.70
24250;DHT22;12379;49.820;8.648;2022-08-19T15:34:40;29.60;56.80
24250;DHT22;12379;49.820;8.648;2022-08-19T15:37:06;29.60;56.40
24250;DHT22;12379;49.820;8.648;2022-08-19T15:39:32;29.60;55.90
24250;DHT22;12379;49.820;8.648;2022-08-19T15:41:57;29.50;55.80
24250;DHT22;12379;49.820;8.648;2022-08-19T15:44:25;29.40;55.60